createdAt,value
2019-04-03T00:00:15.554Z,24.20
2019-04-03T00:02:43.935Z,24.33
2019-04-03T00:05:12.384Z,24.60
2019-04-03T00:07:40.799Z,25.60
2019-04-03T00:10:09.685Z,25.97
2019-04-03T00:12:40.376Z,25.63
2019-04-03T00:15:09.073Z,26.30
2019-04-03T00:17:37.460Z,25.67
2019-04-03T00:20:08.129Z,25.63
2019-04-03T00:22:38.154Z,27.40
2019-04-03T00:25:09.577Z,26.63
2019-04-03T00:27:37.971Z,27.50
2019-04-03T00:30:08.182Z,25.97
2019-04-03T00:32:36.952Z,26.33
2019-04-03T00:35:07.474Z,25.03
2019-04-03T00:37:35.860Z,26.10
2019-04-03T00:40:06.434Z,26.40
2019-04-03T00:42:34.750Z,26.37
2019-04-03T00:45:03.474Z,26.43
2019-04-03T00:47:32.243Z,25.80
2019-04-03T00:50:00.758Z,24.13
2019-04-03T00:52:29.158Z,26.57
2019-04-03T00:54:57.808Z,27.97
2019-04-03T00:57:26.882Z,26.77
2019-04-03T00:59:56.505Z,26.37
2019-04-03T01:02:27.846Z,25.00
2019-04-03T01:04:57.977Z,23.90
2019-04-03T01:07:27.525Z,23.00
2019-04-03T01:09:57.812Z,22.80
2019-04-03T01:12:26.898Z,23.80
2019-04-03T01:14:55.376Z,23.10
2019-04-03T01:17:23.777Z,22.13
2019-04-03T01:19:52.458Z,21.23
2019-04-03T01:22:21.138Z,20.90
2019-04-03T01:24:49.531Z,20.70
2019-04-03T01:27:17.984Z,21.07
2019-04-03T01:29:46.410Z,19.40
2019-04-03T01:32:15.973Z,19.60
2019-04-03T01:34:46.946Z,19.10
2019-04-03T01:37:15.199Z,18.00
2019-04-03T01:39:43.901Z,18.17
2019-04-03T01:42:12.286Z,18.83
2019-04-03T01:44:40.875Z,17.93
2019-04-03T01:47:09.368Z,19.90
2019-04-03T01:49:38.294Z,20.30
2019-04-03T01:52:06.792Z,18.10
2019-04-03T01:54:35.182Z,18.70
2019-04-03T01:57:06.148Z,19.00
2019-04-03T01:59:34.010Z,18.37
2019-04-03T02:02:02.509Z,17.67
2019-04-03T02:04:30.953Z,18.20
2019-04-03T02:06:59.786Z,17.10
2019-04-03T02:09:28.177Z,18.00
2019-04-03T02:11:56.584Z,16.50
2019-04-03T02:14:24.965Z,16.90
2019-04-03T02:16:54.051Z,18.07
2019-04-03T02:19:22.628Z,16.40
2019-04-03T02:21:52.696Z,17.00
2019-04-03T02:24:21.268Z,17.00
2019-04-03T02:26:49.746Z,17.07
2019-04-03T02:29:18.136Z,16.47
2019-04-03T02:31:46.574Z,16.70
2019-04-03T02:34:15.472Z,17.30
2019-04-03T02:36:45.176Z,16.00
2019-04-03T02:39:14.413Z,17.87
2019-04-03T02:41:43.194Z,16.70
2019-04-03T02:44:11.805Z,17.40
2019-04-03T02:46:40.234Z,17.50
2019-04-03T02:49:10.239Z,16.70
2019-04-03T02:51:41.054Z,16.37
2019-04-03T02:54:27.548Z,15.37
2019-04-03T02:56:57.797Z,15.00
2019-04-03T02:59:27.153Z,15.50
2019-04-03T03:01:56.195Z,15.23
2019-04-03T03:04:25.333Z,15.80
2019-04-03T03:06:54.317Z,13.93
2019-04-03T03:09:23.041Z,15.70
2019-04-03T03:11:54.863Z,13.10
2019-04-03T03:14:23.596Z,12.50
2019-04-03T03:16:52.259Z,12.70
2019-04-03T03:19:22.854Z,12.70
2019-04-03T03:21:53.698Z,13.10
2019-04-03T03:24:22.403Z,12.90
2019-04-03T03:26:51.149Z,11.47
2019-04-03T03:29:25.269Z,10.90
2019-04-03T03:32:07.939Z,10.97
2019-04-03T03:34:44.928Z,10.80
2019-04-03T03:36:57.674Z,9.80
2019-04-03T03:39:21.717Z,8.93
2019-04-03T03:41:51.152Z,9.03
2019-04-03T03:44:22.746Z,8.17
2019-04-03T03:46:54.390Z,8.43
2019-04-03T03:49:24.501Z,8.20
2019-04-03T03:51:53.459Z,8.00
2019-04-03T03:54:22.859Z,7.70
2019-04-03T03:56:51.696Z,7.50
2019-04-03T03:59:20.548Z,8.20
2019-04-03T04:01:49.670Z,8.40
2019-04-03T04:04:18.384Z,9.50
2019-04-03T04:06:48.290Z,9.60
2019-04-03T04:09:18.546Z,9.07
2019-04-03T04:11:47.446Z,9.00
2019-04-03T04:14:21.506Z,7.90
2019-04-03T04:16:47.515Z,8.40
2019-04-03T04:19:16.289Z,8.63
2019-04-03T04:21:45.265Z,8.87
2019-04-03T04:24:13.771Z,8.27
2019-04-03T04:26:42.726Z,8.90
2019-04-03T04:29:11.540Z,9.00
2019-04-03T04:31:41.756Z,8.33
2019-04-03T04:34:10.283Z,7.47
2019-04-03T04:36:38.867Z,7.90
2019-04-03T04:39:09.437Z,9.17
2019-04-03T04:41:37.877Z,8.10
2019-04-03T04:44:09.445Z,7.90
2019-04-03T04:46:36.417Z,8.40
2019-04-03T04:49:04.891Z,9.30
2019-04-03T04:51:33.275Z,9.70
2019-04-03T04:54:01.742Z,8.73
2019-04-03T04:56:30.142Z,9.50
2019-04-03T04:58:58.604Z,9.20
2019-04-03T05:01:27.272Z,9.50
2019-04-03T05:03:55.829Z,10.57
2019-04-03T05:06:24.502Z,8.83
2019-04-03T05:08:52.902Z,9.83
2019-04-03T05:11:21.277Z,9.77
2019-04-03T05:13:50.124Z,10.57
2019-04-03T05:16:20.723Z,10.13
2019-04-03T05:18:48.586Z,10.43
2019-04-03T05:21:17.196Z,9.83
2019-04-03T05:23:45.652Z,10.63
2019-04-03T05:26:14.208Z,10.67
2019-04-03T05:28:54.348Z,10.20
2019-04-03T05:31:13.251Z,11.70
2019-04-03T05:33:42.425Z,11.20
2019-04-03T05:36:10.914Z,11.57
2019-04-03T05:38:39.703Z,11.23
2019-04-03T05:41:08.009Z,12.00
2019-04-03T05:43:36.697Z,11.27
2019-04-03T05:46:06.051Z,13.60
2019-04-03T05:48:34.799Z,13.33
2019-04-03T05:51:03.272Z,12.40
2019-04-03T05:53:31.751Z,13.03
2019-04-03T05:56:00.450Z,12.10
2019-04-03T05:58:28.971Z,13.20
2019-04-03T06:01:04.489Z,13.50
2019-04-03T06:03:40.151Z,12.80
2019-04-03T06:05:58.603Z,13.93
2019-04-03T06:08:27.113Z,12.57
2019-04-03T06:10:55.488Z,13.33
2019-04-03T06:13:24.192Z,13.17
2019-04-03T06:15:53.579Z,12.60
2019-04-03T06:18:22.033Z,12.40
2019-04-03T06:20:50.587Z,12.03
2019-04-03T06:23:19.311Z,13.77
2019-04-03T06:25:49.322Z,12.27
2019-04-03T06:28:17.980Z,12.37
2019-04-03T06:30:46.286Z,12.40
2019-04-03T06:33:15.003Z,12.50
2019-04-03T06:35:45.208Z,12.80
2019-04-03T06:38:13.733Z,11.97
2019-04-03T06:40:42.139Z,12.13
2019-04-03T06:43:10.829Z,11.57
2019-04-03T06:45:39.585Z,12.10
2019-04-03T06:48:08.422Z,12.17
2019-04-03T06:50:37.666Z,12.10
2019-04-03T06:53:06.357Z,12.20
2019-04-03T06:55:36.088Z,11.70
2019-04-03T06:58:05.356Z,12.37
2019-04-03T07:00:34.046Z,12.70
2019-04-03T07:03:03.850Z,12.30
2019-04-03T07:05:33.082Z,12.90
2019-04-03T07:08:04.322Z,12.83
2019-04-03T07:10:31.961Z,13.30
2019-04-03T07:13:00.644Z,13.67
2019-04-03T07:15:29.040Z,14.60
2019-04-03T07:17:57.427Z,13.33
2019-04-03T07:20:25.898Z,14.23
2019-04-03T07:22:54.573Z,14.80
2019-04-03T07:25:23.074Z,13.70
2019-04-03T07:27:51.856Z,14.03
2019-04-03T07:30:21.733Z,13.67
2019-04-03T07:32:50.433Z,13.93
2019-04-03T07:35:18.841Z,13.47
2019-04-03T07:37:49.015Z,14.80
2019-04-03T07:40:18.766Z,15.97
2019-04-03T07:42:47.983Z,15.87
2019-04-03T07:45:16.727Z,14.93
2019-04-03T07:47:45.130Z,17.27
2019-04-03T07:50:14.125Z,15.40
2019-04-03T07:52:42.719Z,15.07
2019-04-03T07:55:11.267Z,15.37
2019-04-03T07:57:41.088Z,15.33
2019-04-03T08:00:11.090Z,15.20
2019-04-03T08:02:39.535Z,15.50
2019-04-03T08:05:08.659Z,14.67
2019-04-03T08:07:37.264Z,15.50
2019-04-03T08:10:08.416Z,15.00
2019-04-03T08:12:37.298Z,15.40
2019-04-03T08:15:08.576Z,15.70
2019-04-03T08:17:37.095Z,14.70
2019-04-03T08:20:07.632Z,14.40
2019-04-03T08:22:36.857Z,15.00
2019-04-03T08:25:10.665Z,16.00
2019-04-03T08:27:37.970Z,15.93
2019-04-03T08:30:08.468Z,15.43
2019-04-03T08:32:37.474Z,14.90
2019-04-03T08:35:19.419Z,15.40
2019-04-03T08:37:40.903Z,15.50
2019-04-03T08:40:08.618Z,15.20
2019-04-03T08:42:37.624Z,15.00
2019-04-03T08:45:10.823Z,14.73
2019-04-03T08:47:39.948Z,14.30
2019-04-03T08:50:11.780Z,14.40
2019-04-03T08:52:40.810Z,12.97
2019-04-03T08:55:12.900Z,13.20
2019-04-03T08:57:40.433Z,12.73
2019-04-03T09:00:10.808Z,13.70
2019-04-03T09:02:42.495Z,13.83
2019-04-03T09:05:09.756Z,14.53
2019-04-03T09:07:38.221Z,15.13
2019-04-03T09:10:08.777Z,13.27
2019-04-03T09:12:38.417Z,14.87
2019-04-03T09:15:08.285Z,15.27
2019-04-03T09:17:36.902Z,14.00
2019-04-03T09:20:06.145Z,14.63
2019-04-03T09:22:34.831Z,13.90
2019-04-03T09:25:04.448Z,12.10
2019-04-03T09:27:33.669Z,12.93
2019-04-03T09:30:02.524Z,13.00
2019-04-03T09:32:31.233Z,13.13
2019-04-03T09:35:01.429Z,12.80
2019-04-03T09:37:30.012Z,12.50
2019-04-03T09:39:58.414Z,13.13
2019-04-03T09:42:26.827Z,12.80
2019-04-03T09:44:56.201Z,12.50
2019-04-03T09:47:25.466Z,11.60
2019-04-03T09:49:54.286Z,10.97
2019-04-03T09:52:23.655Z,11.00
2019-04-03T09:54:52.841Z,10.73
2019-04-03T09:57:21.407Z,11.50
2019-04-03T09:59:50.058Z,11.50
2019-04-03T10:02:19.216Z,12.07
2019-04-03T10:04:48.945Z,11.17
2019-04-03T10:07:17.447Z,12.07
2019-04-03T10:09:46.183Z,12.13
2019-04-03T10:12:14.831Z,10.97
2019-04-03T10:14:43.379Z,11.47
2019-04-03T10:17:11.949Z,10.90
2019-04-03T10:19:40.756Z,11.07
2019-04-03T10:22:09.741Z,11.50
2019-04-03T10:24:38.722Z,11.70
2019-04-03T10:27:10.787Z,10.20
2019-04-03T10:29:37.978Z,11.07
2019-04-03T10:32:06.968Z,10.60
2019-04-03T10:34:36.183Z,10.50
2019-04-03T10:37:04.966Z,10.33
2019-04-03T10:39:33.408Z,11.10
2019-04-03T10:42:02.126Z,10.70
2019-04-03T10:44:30.930Z,10.70
2019-04-03T10:46:59.269Z,9.23
2019-04-03T10:49:27.882Z,9.00
2019-04-03T10:51:56.496Z,9.33
2019-04-03T10:54:25.760Z,9.73
2019-04-03T10:56:54.282Z,9.50
2019-04-03T10:59:22.920Z,10.67
2019-04-03T11:01:51.595Z,10.70
2019-04-03T11:04:20.095Z,10.30
2019-04-03T11:06:48.760Z,10.30
2019-04-03T11:09:17.253Z,9.60
2019-04-03T11:11:45.749Z,9.00
2019-04-03T11:14:14.151Z,9.77
2019-04-03T11:16:45.997Z,8.80
2019-04-03T11:19:12.906Z,9.37
2019-04-03T11:21:43.349Z,10.17
2019-04-03T11:24:12.348Z,9.83
2019-04-03T11:26:41.006Z,8.70
2019-04-03T11:29:10.422Z,8.90
2019-04-03T11:31:41.827Z,8.33
2019-04-03T11:34:09.391Z,7.63
2019-04-03T11:36:38.183Z,7.63
2019-04-03T11:39:14.869Z,7.77
2019-04-03T11:41:39.347Z,7.60
2019-04-03T11:44:07.821Z,7.87
2019-04-03T11:46:36.570Z,8.50
2019-04-03T11:49:05.003Z,7.00
2019-04-03T11:51:34.473Z,7.60
2019-04-03T11:54:03.268Z,7.70
2019-04-03T11:56:31.660Z,7.80
2019-04-03T11:59:00.101Z,7.30
2019-04-03T12:01:28.868Z,7.13
2019-04-03T12:03:57.483Z,7.63
2019-04-03T12:06:27.415Z,7.40
2019-04-03T12:08:55.868Z,7.70
2019-04-03T12:11:24.257Z,8.90
2019-04-03T12:13:53.234Z,8.70
2019-04-03T12:16:24.015Z,9.37
2019-04-03T12:18:51.724Z,9.13
2019-04-03T12:21:20.359Z,8.40
2019-04-03T12:23:48.781Z,9.07
2019-04-03T12:26:20.091Z,8.80
2019-04-03T12:28:49.041Z,9.07
2019-04-03T12:31:18.155Z,8.77
2019-04-03T12:33:53.888Z,8.90
2019-04-03T12:36:16.920Z,8.97
2019-04-03T12:38:45.567Z,8.80
2019-04-03T12:41:14.710Z,8.93
2019-04-03T12:43:43.118Z,8.70
2019-04-03T12:46:11.930Z,8.40
2019-04-03T12:48:40.655Z,8.50
2019-04-03T12:51:09.125Z,8.10
2019-04-03T12:53:37.862Z,8.20
2019-04-03T12:56:06.598Z,8.73
2019-04-03T12:58:36.321Z,8.27
2019-04-03T13:01:05.659Z,8.00
2019-04-03T13:03:37.081Z,8.27
2019-04-03T13:06:04.986Z,8.00
2019-04-03T13:08:33.635Z,7.47
2019-04-03T13:11:02.153Z,8.23
2019-04-03T13:13:30.802Z,8.90
2019-04-03T13:15:59.423Z,8.27
2019-04-03T13:18:27.914Z,8.50
2019-04-03T13:20:56.777Z,8.93
2019-04-03T13:23:25.543Z,8.40
2019-04-03T13:25:54.150Z,8.30
2019-04-03T13:28:23.838Z,8.83
2019-04-03T13:30:53.124Z,8.40
2019-04-03T13:33:21.752Z,8.20
2019-04-03T13:35:50.159Z,8.77
2019-04-03T13:38:19.063Z,8.40
2019-04-03T13:40:47.438Z,8.63
2019-04-03T13:43:16.121Z,9.00
2019-04-03T13:45:45.224Z,7.97
2019-04-03T13:48:14.047Z,8.27
2019-04-03T13:50:45.452Z,8.73
2019-04-03T13:53:14.751Z,8.13
2019-04-03T13:55:43.413Z,8.30
2019-04-03T13:58:11.789Z,8.63
2019-04-03T14:00:40.702Z,9.00
2019-04-03T14:03:09.229Z,9.17
2019-04-03T14:05:38.116Z,8.13
2019-04-03T14:08:07.468Z,8.63
2019-04-03T14:10:36.289Z,8.63
2019-04-03T14:13:04.920Z,8.20
2019-04-03T14:15:33.466Z,8.63
2019-04-03T14:18:02.294Z,8.50
2019-04-03T14:20:31.003Z,8.80
2019-04-03T14:23:02.696Z,8.37
2019-04-03T14:25:35.150Z,8.17
2019-04-03T14:28:01.852Z,8.43
2019-04-03T14:30:30.236Z,7.43
2019-04-03T14:32:58.655Z,7.70
2019-04-03T14:35:46.766Z,8.50
2019-04-03T14:37:59.495Z,8.43
2019-04-03T14:40:27.988Z,8.47
2019-04-03T14:42:58.761Z,8.80
2019-04-03T14:45:26.567Z,8.70
2019-04-03T14:47:55.963Z,8.90
2019-04-03T14:50:25.680Z,9.10
2019-04-03T14:52:54.672Z,8.60
2019-04-03T14:55:23.641Z,8.80
2019-04-03T14:57:53.756Z,9.27
2019-04-03T15:00:27.275Z,9.20
2019-04-03T15:02:54.704Z,9.10
2019-04-03T15:05:23.014Z,10.00
2019-04-03T15:07:51.531Z,9.10
2019-04-03T15:10:20.799Z,10.10
2019-04-03T15:12:49.255Z,9.63
2019-04-03T15:15:18.167Z,9.20
2019-04-03T15:17:46.627Z,8.53
2019-04-03T15:20:17.971Z,7.70
2019-04-03T15:22:45.498Z,8.67
2019-04-03T15:25:15.818Z,8.53
2019-04-03T15:27:44.887Z,8.03
2019-04-03T15:30:14.498Z,8.73
2019-04-03T15:32:42.900Z,8.63
2019-04-03T15:35:11.812Z,8.73
2019-04-03T15:37:42.128Z,8.50
2019-04-03T15:40:10.850Z,8.07
2019-04-03T15:42:41.394Z,9.77
2019-04-03T15:45:11.347Z,10.13
2019-04-03T15:47:45.060Z,9.03
2019-04-03T15:50:10.676Z,8.97
2019-04-03T15:52:39.260Z,9.50
2019-04-03T15:55:09.574Z,9.90
2019-04-03T15:57:39.930Z,11.23
2019-04-03T16:00:13.959Z,10.50
2019-04-03T16:02:45.671Z,10.50
2019-04-03T16:05:13.552Z,11.40
2019-04-03T16:07:42.659Z,10.43
2019-04-03T16:10:11.776Z,11.67
2019-04-03T16:12:42.959Z,10.70
2019-04-03T16:15:10.706Z,10.87
2019-04-03T16:17:39.879Z,9.97
2019-04-03T16:20:09.396Z,10.37
2019-04-03T16:22:38.181Z,10.00
2019-04-03T16:25:08.221Z,9.87
2019-04-03T16:27:36.656Z,10.23
2019-04-03T16:30:08.352Z,9.30
2019-04-03T16:32:37.000Z,9.63
2019-04-03T16:35:07.936Z,9.70
2019-04-03T16:37:36.476Z,9.13
2019-04-03T16:40:06.793Z,9.47
2019-04-03T16:42:35.536Z,10.30
2019-04-03T16:45:08.478Z,9.77
2019-04-03T16:47:36.836Z,10.30
2019-04-03T16:50:08.266Z,10.87
2019-04-03T16:52:37.836Z,10.97
2019-04-03T16:55:08.123Z,10.73
2019-04-03T16:57:37.222Z,10.33
2019-04-03T17:00:10.520Z,11.20
2019-04-03T17:02:38.976Z,10.70
2019-04-03T17:05:10.217Z,11.27
2019-04-03T17:07:38.507Z,10.40
2019-04-03T17:10:10.560Z,11.07
2019-04-03T17:12:39.501Z,10.70
2019-04-03T17:15:09.733Z,11.30
2019-04-03T17:17:57.873Z,12.10
2019-04-03T17:20:26.280Z,13.03
2019-04-03T17:22:54.868Z,11.37
2019-04-03T17:25:27.542Z,11.13
2019-04-03T17:27:58.112Z,11.73
2019-04-03T17:30:25.178Z,11.80
2019-04-03T17:32:53.557Z,10.80
2019-04-03T17:35:21.963Z,11.30
2019-04-03T17:37:50.745Z,11.23
2019-04-03T17:40:19.396Z,10.40
2019-04-03T17:42:50.683Z,10.90
2019-04-03T17:45:19.074Z,10.70
2019-04-03T17:47:49.518Z,10.73
2019-04-03T17:50:18.174Z,11.10
2019-04-03T18:24:24.461Z,11.33
2019-04-03T18:26:52.958Z,11.17
2019-04-03T18:29:24.241Z,10.90
2019-04-03T18:31:51.767Z,11.00
2019-04-03T18:34:20.326Z,11.30
2019-04-03T18:36:48.813Z,11.67
2019-04-03T18:39:17.392Z,11.97
2019-04-03T18:41:47.595Z,12.60
2019-04-03T18:44:21.976Z,11.40
2019-04-03T18:46:46.093Z,11.17
2019-04-03T18:49:14.507Z,12.40
2019-04-03T18:51:42.983Z,13.83
2019-04-03T18:54:12.055Z,13.00
2019-04-03T18:56:40.593Z,12.97
2019-04-03T18:59:09.066Z,13.90
2019-04-03T19:01:52.889Z,14.13
2019-04-03T19:04:22.659Z,13.30
2019-04-03T19:06:55.790Z,14.33
2019-04-03T19:09:23.504Z,14.37
2019-04-03T19:11:52.190Z,13.77
2019-04-03T19:14:27.095Z,14.90
2019-04-03T19:16:52.730Z,15.07
2019-04-03T19:19:22.947Z,14.10
2019-04-03T19:21:50.983Z,14.30
2019-04-03T19:24:19.419Z,14.40
2019-04-03T19:26:47.809Z,13.70
2019-04-03T19:29:16.199Z,14.60
2019-04-03T19:31:44.982Z,14.50
2019-04-03T19:34:17.755Z,14.40
2019-04-03T19:36:43.869Z,15.30
2019-04-03T19:39:12.327Z,14.60
2019-04-03T19:41:40.983Z,14.73
2019-04-03T19:44:11.154Z,15.70
2019-04-03T19:46:39.553Z,16.10
2019-04-03T19:49:07.989Z,15.40
2019-04-03T19:51:37.515Z,15.33
2019-04-03T19:54:06.395Z,14.73
2019-04-03T19:56:34.804Z,16.00
2019-04-03T19:59:04.869Z,16.47
2019-04-03T20:01:33.474Z,15.50
2019-04-03T20:04:01.874Z,16.60
2019-04-03T20:06:30.554Z,16.00
2019-04-03T20:09:00.803Z,15.70
2019-04-03T20:11:29.746Z,16.87
2019-04-03T20:13:58.148Z,17.03
2019-04-03T20:16:26.815Z,18.20
2019-04-03T20:18:56.492Z,17.73
2019-04-03T20:21:25.382Z,17.60
2019-04-03T20:23:54.103Z,17.50
2019-04-03T20:26:22.557Z,17.00
2019-04-03T20:28:51.006Z,16.80
2019-04-03T20:31:19.404Z,17.27
2019-04-03T20:33:47.796Z,18.80
2019-04-03T20:36:16.794Z,19.83
2019-04-03T20:38:45.513Z,18.80
2019-04-03T20:41:13.910Z,18.23
2019-04-03T20:43:43.253Z,18.40
2019-04-03T20:46:12.710Z,18.23
2019-04-03T20:48:41.115Z,17.77
2019-04-03T20:51:09.617Z,17.30
2019-04-03T20:53:37.972Z,18.70
2019-04-03T20:56:06.406Z,17.27
2019-04-03T20:58:34.801Z,19.27
2019-04-03T21:01:06.890Z,18.97
2019-04-03T21:03:33.316Z,17.50
2019-04-03T21:06:01.719Z,19.83
2019-04-03T21:08:31.762Z,18.90
2019-04-03T21:11:02.384Z,18.60
2019-04-03T21:13:30.419Z,18.87
2019-04-03T21:15:58.859Z,18.80
2019-04-03T21:18:27.513Z,18.40
2019-04-03T21:20:55.888Z,18.87
2019-04-03T21:23:24.270Z,19.20
2019-04-03T21:25:52.916Z,19.53
2019-04-03T21:28:21.306Z,20.43
2019-04-03T21:30:49.708Z,19.30
2019-04-03T21:33:18.446Z,19.20
2019-04-03T21:35:46.842Z,20.23
2019-04-03T21:38:15.513Z,20.60
2019-04-03T21:40:44.993Z,20.30
2019-04-03T21:43:14.352Z,20.27
2019-04-03T21:45:42.963Z,19.83
2019-04-03T21:48:11.919Z,20.20
2019-04-03T21:50:41.833Z,20.30
2019-04-03T21:53:10.222Z,20.20
2019-04-03T21:55:38.845Z,21.03
2019-04-03T21:58:08.929Z,19.57
2019-04-03T22:00:59.310Z,19.23
2019-04-03T22:03:27.777Z,20.10
2019-04-03T22:05:56.608Z,19.70
2019-04-03T22:08:25.055Z,19.00
2019-04-03T22:10:53.444Z,18.70
2019-04-03T22:13:21.839Z,18.53
2019-04-03T22:15:50.529Z,18.13
2019-04-03T22:18:19.209Z,17.80
2019-04-03T22:20:47.835Z,18.60
2019-04-03T22:23:16.493Z,19.20
2019-04-03T22:25:44.901Z,19.10
2019-04-03T22:28:14.028Z,17.83
2019-04-03T22:30:42.594Z,20.33
2019-04-03T22:33:10.984Z,18.90
2019-04-03T22:35:39.635Z,18.67
2019-04-03T22:38:08.326Z,17.57
2019-04-03T22:40:37.019Z,18.70
2019-04-03T22:43:05.405Z,17.90
2019-04-03T22:45:33.793Z,19.17
2019-04-03T22:48:02.199Z,19.73
2019-04-03T22:50:30.652Z,19.00
2019-04-03T22:52:59.309Z,19.93
2019-04-03T22:55:27.908Z,20.50
2019-04-03T22:57:56.327Z,18.90
2019-04-03T23:00:25.850Z,20.70
2019-04-03T23:02:54.840Z,18.70
2019-04-03T23:05:23.501Z,19.03
2019-04-03T23:07:52.660Z,19.20
2019-04-03T23:10:21.246Z,19.37
2019-04-03T23:12:49.631Z,19.33
2019-04-03T23:15:18.080Z,20.07
2019-04-03T23:17:46.772Z,19.00
2019-04-03T23:20:15.439Z,19.77
2019-04-03T23:22:44.080Z,20.37
2019-04-03T23:25:12.481Z,20.20
2019-04-03T23:27:40.883Z,19.80
2019-04-03T23:30:10.754Z,20.60
2019-04-03T23:32:39.321Z,21.70
2019-04-03T23:35:08.195Z,19.77
2019-04-03T23:37:36.885Z,19.90
2019-04-03T23:40:06.846Z,19.80
2019-04-03T23:42:35.933Z,19.07
2019-04-03T23:45:07.578Z,19.87
2019-04-03T23:47:35.983Z,21.00
2019-04-03T23:50:08.604Z,21.17
2019-04-03T23:52:36.994Z,19.73
2019-04-03T23:55:06.634Z,20.77
2019-04-03T23:57:35.220Z,20.23
